createdAt,value
2018-10-11T00:00:27.155Z,15.57
2018-10-11T00:01:27.135Z,15.39
2018-10-11T00:02:27.131Z,15.49
2018-10-11T00:03:27.119Z,15.41
2018-10-11T00:04:27.105Z,15.38
2018-10-11T00:05:27.094Z,15.43
2018-10-11T00:06:27.085Z,15.46
2018-10-11T00:07:27.076Z,15.46
2018-10-11T00:08:27.071Z,15.41
2018-10-11T00:09:27.059Z,15.47
2018-10-11T00:10:27.042Z,15.38
2018-10-11T00:11:27.043Z,15.46
2018-10-11T00:12:27.024Z,15.49
2018-10-11T00:13:27.017Z,15.46
2018-10-11T00:14:27.008Z,15.38
2018-10-11T00:15:26.990Z,15.41
2018-10-11T00:16:26.980Z,15.38
2018-10-11T00:17:26.980Z,15.43
2018-10-11T00:18:26.974Z,15.34
2018-10-11T00:19:26.952Z,15.34
2018-10-11T00:20:26.944Z,15.36
2018-10-11T00:21:26.933Z,15.34
2018-10-11T00:22:26.923Z,15.35
2018-10-11T00:23:26.916Z,15.34
2018-10-11T00:24:26.909Z,15.34
2018-10-11T00:25:26.894Z,15.27
2018-10-11T00:26:26.890Z,15.28
2018-10-11T00:27:26.874Z,15.25
2018-10-11T00:28:26.863Z,15.23
2018-10-11T00:29:26.854Z,15.29
2018-10-11T00:30:26.853Z,15.13
2018-10-11T00:31:26.834Z,15.19
2018-10-11T00:32:26.823Z,15.14
2018-10-11T00:33:26.814Z,15.16
2018-10-11T00:34:26.808Z,15.19
2018-10-11T00:35:26.794Z,15.17
2018-10-11T00:36:26.788Z,15.25
2018-10-11T00:37:26.774Z,15.17
2018-10-11T00:38:26.768Z,15.16
2018-10-11T00:39:26.760Z,15.13
2018-10-11T00:40:26.744Z,15.10
2018-10-11T00:41:26.730Z,15.09
2018-10-11T00:42:26.721Z,14.98
2018-10-11T00:43:26.711Z,15.07
2018-10-11T00:44:26.703Z,15.02
2018-10-11T00:45:26.697Z,14.92
2018-10-11T00:46:26.686Z,14.98
2018-10-11T00:47:26.673Z,15.02
2018-10-11T00:48:26.662Z,14.99
2018-10-11T00:49:26.680Z,14.96
2018-10-11T00:50:26.643Z,14.95
2018-10-11T00:51:26.632Z,14.98
2018-10-11T00:52:26.623Z,14.92
2018-10-11T00:53:26.605Z,14.91
2018-10-11T00:54:26.617Z,14.92
2018-10-11T00:55:26.587Z,14.92
2018-10-11T00:56:26.576Z,14.89
2018-10-11T00:57:26.567Z,14.84
2018-10-11T00:58:26.557Z,14.89
2018-10-11T00:59:26.548Z,14.83
2018-10-11T01:00:26.535Z,14.84
2018-10-11T01:01:26.525Z,14.77
2018-10-11T01:02:26.530Z,14.81
2018-10-11T01:03:26.507Z,14.81
2018-10-11T01:04:26.493Z,14.75
2018-10-11T01:05:26.490Z,14.73
2018-10-11T01:06:26.479Z,14.70
2018-10-11T01:07:26.461Z,14.75
2018-10-11T01:08:26.460Z,14.78
2018-10-11T01:09:26.579Z,14.80
2018-10-11T01:10:26.429Z,14.75
2018-10-11T01:11:26.420Z,14.78
2018-10-11T01:12:26.410Z,14.78
2018-10-11T01:13:26.402Z,14.80
2018-10-11T01:14:26.393Z,14.83
2018-10-11T01:15:26.379Z,14.72
2018-10-11T01:16:26.366Z,14.78
2018-10-11T01:17:26.372Z,14.77
2018-10-11T01:18:26.346Z,14.70
2018-10-11T01:19:26.340Z,14.77
2018-10-11T01:20:26.334Z,14.70
2018-10-11T01:21:26.315Z,14.69
2018-10-11T01:22:26.306Z,14.73
2018-10-11T01:23:26.295Z,14.75
2018-10-11T01:24:26.293Z,14.73
2018-10-11T01:25:26.278Z,14.77
2018-10-11T01:26:26.264Z,14.69
2018-10-11T01:27:26.254Z,14.69
2018-10-11T01:28:26.242Z,14.70
2018-10-11T01:29:26.251Z,14.69
2018-10-11T01:30:26.227Z,14.69
2018-10-11T01:31:26.215Z,14.68
2018-10-11T01:32:26.203Z,14.75
2018-10-11T01:33:26.195Z,14.72
2018-10-11T01:34:26.185Z,14.64
2018-10-11T01:35:26.177Z,14.64
2018-10-11T01:36:26.165Z,14.68
2018-10-11T01:37:26.155Z,14.68
2018-10-11T01:38:26.138Z,14.69
2018-10-11T01:39:26.127Z,14.73
2018-10-11T01:40:26.117Z,14.65
2018-10-11T01:41:26.118Z,14.70
2018-10-11T01:42:26.099Z,14.65
2018-10-11T01:43:26.086Z,14.70
2018-10-11T01:44:26.077Z,14.60
2018-10-11T01:45:26.066Z,14.62
2018-10-11T01:46:26.057Z,14.65
2018-10-11T01:47:26.049Z,14.73
2018-10-11T01:48:26.037Z,14.75
2018-10-11T01:49:26.027Z,14.61
2018-10-11T01:50:26.015Z,14.65
2018-10-11T01:51:26.005Z,14.69
2018-10-11T01:52:25.995Z,14.68
2018-10-11T01:53:25.987Z,14.64
2018-10-11T01:54:25.972Z,14.58
2018-10-11T01:55:25.970Z,14.62
2018-10-11T01:56:25.952Z,14.55
2018-10-11T01:57:25.939Z,14.58
2018-10-11T01:58:25.926Z,14.55
2018-10-11T01:59:25.918Z,14.52
2018-10-11T02:00:25.914Z,14.58
2018-10-11T02:01:25.898Z,14.58
2018-10-11T02:02:25.889Z,14.55
2018-10-11T02:03:25.877Z,14.61
2018-10-11T02:04:25.865Z,14.58
2018-10-11T02:05:25.855Z,14.50
2018-10-11T02:06:25.848Z,14.47
2018-10-11T02:07:25.839Z,14.45
2018-10-11T02:08:25.815Z,14.42
2018-10-11T02:09:25.869Z,14.46
2018-10-11T02:10:25.805Z,14.45
2018-10-11T02:11:25.791Z,14.40
2018-10-11T02:12:25.782Z,14.42
2018-10-11T02:13:25.769Z,14.43
2018-10-11T02:14:25.761Z,14.40
2018-10-11T02:15:25.751Z,14.50
2018-10-11T02:16:25.739Z,14.51
2018-10-11T02:17:25.732Z,14.43
2018-10-11T02:18:25.714Z,14.47
2018-10-11T02:19:25.708Z,14.51
2018-10-11T02:20:25.696Z,14.54
2018-10-11T02:21:25.683Z,14.55
2018-10-11T02:22:25.675Z,14.57
2018-10-11T02:23:25.681Z,14.55
2018-10-11T02:24:25.673Z,14.54
2018-10-11T02:25:25.642Z,14.54
2018-10-11T02:26:25.633Z,14.51
2018-10-11T02:27:25.618Z,14.58
2018-10-11T02:28:25.627Z,14.54
2018-10-11T02:29:25.699Z,14.52
2018-10-11T02:30:25.606Z,14.64
2018-10-11T02:31:25.575Z,14.62
2018-10-11T02:32:25.573Z,14.57
2018-10-11T02:33:25.557Z,14.57
2018-10-11T02:34:25.553Z,14.54
2018-10-11T02:35:25.538Z,14.58
2018-10-11T02:36:25.524Z,14.55
2018-10-11T02:37:25.516Z,14.58
2018-10-11T02:38:25.505Z,14.52
2018-10-11T02:39:25.495Z,14.55
2018-10-11T02:40:25.485Z,14.47
2018-10-11T02:41:25.473Z,14.52
2018-10-11T02:42:25.462Z,14.52
2018-10-11T02:43:25.452Z,14.42
2018-10-11T02:44:25.441Z,14.50
2018-10-11T02:45:25.428Z,14.43
2018-10-11T02:46:25.419Z,14.46
2018-10-11T02:47:25.425Z,14.47
2018-10-11T02:48:25.398Z,14.50
2018-10-11T02:49:25.388Z,14.50
2018-10-11T02:50:25.383Z,14.50
2018-10-11T02:51:25.360Z,14.42
2018-10-11T02:52:25.355Z,14.46
2018-10-11T02:53:25.345Z,14.46
2018-10-11T02:54:25.334Z,14.43
2018-10-11T02:55:25.329Z,14.51
2018-10-11T02:56:25.315Z,14.45
2018-10-11T02:57:25.301Z,14.47
2018-10-11T02:58:25.293Z,14.45
2018-10-11T02:59:25.278Z,14.43
2018-10-11T03:00:25.273Z,14.51
2018-10-11T03:01:25.258Z,14.50
2018-10-11T03:02:25.251Z,14.47
2018-10-11T03:03:25.235Z,14.42
2018-10-11T03:04:25.247Z,14.45
2018-10-11T03:05:25.214Z,14.40
2018-10-11T03:06:25.205Z,14.47
2018-10-11T03:07:25.207Z,14.42
2018-10-11T03:08:25.181Z,14.47
2018-10-11T03:09:25.176Z,14.46
2018-10-11T03:10:25.164Z,14.45
2018-10-11T03:11:25.152Z,14.46
2018-10-11T03:12:25.140Z,14.42
2018-10-11T03:13:25.130Z,14.35
2018-10-11T03:14:25.124Z,14.37
2018-10-11T03:15:25.108Z,14.33
2018-10-11T03:16:25.101Z,14.35
2018-10-11T03:17:25.091Z,14.37
2018-10-11T03:18:25.083Z,14.39
2018-10-11T03:19:25.067Z,14.32
2018-10-11T03:20:25.060Z,14.36
2018-10-11T03:21:25.049Z,14.39
2018-10-11T03:22:25.039Z,14.39
2018-10-11T03:23:25.025Z,14.42
2018-10-11T03:24:25.017Z,14.36
2018-10-11T03:25:25.008Z,14.36
2018-10-11T03:26:24.993Z,14.39
2018-10-11T03:27:24.982Z,14.35
2018-10-11T03:28:24.970Z,14.37
2018-10-11T03:29:24.972Z,14.40
2018-10-11T03:30:24.952Z,14.39
2018-10-11T03:31:24.937Z,14.25
2018-10-11T03:32:24.929Z,14.27
2018-10-11T03:33:24.923Z,14.27
2018-10-11T03:34:24.930Z,14.24
2018-10-11T03:35:24.892Z,14.29
2018-10-11T03:36:24.887Z,14.33
2018-10-11T03:37:24.875Z,14.28
2018-10-11T03:38:24.863Z,14.29
2018-10-11T03:39:24.857Z,14.25
2018-10-11T03:40:24.841Z,14.33
2018-10-11T03:41:24.828Z,14.32
2018-10-11T03:42:24.820Z,14.29
2018-10-11T03:43:24.814Z,14.28
2018-10-11T03:44:24.804Z,14.28
2018-10-11T03:45:24.795Z,14.29
2018-10-11T03:46:24.788Z,14.28
2018-10-11T03:47:24.767Z,14.32
2018-10-11T03:48:24.756Z,14.29
2018-10-11T03:49:24.744Z,14.32
2018-10-11T03:50:24.735Z,14.18
2018-10-11T03:51:24.720Z,14.22
2018-10-11T03:52:24.712Z,14.15
2018-10-11T03:53:24.696Z,14.20
2018-10-11T03:54:24.690Z,14.09
2018-10-11T03:55:24.681Z,14.07
2018-10-11T03:56:24.671Z,14.07
2018-10-11T03:57:24.669Z,13.99
2018-10-11T03:58:24.656Z,13.99
2018-10-11T03:59:24.640Z,14.04
2018-10-11T04:00:24.628Z,14.06
2018-10-11T04:01:24.613Z,14.06
2018-10-11T04:02:24.604Z,13.97
2018-10-11T04:03:24.595Z,13.89
2018-10-11T04:04:24.581Z,13.97
2018-10-11T04:05:24.573Z,13.99
2018-10-11T04:06:24.564Z,14.07
2018-10-11T04:07:24.622Z,14.04
2018-10-11T04:08:24.549Z,14.00
2018-10-11T04:09:24.526Z,14.04
2018-10-11T04:10:24.530Z,14.14
2018-10-11T04:11:24.518Z,14.12
2018-10-11T04:12:24.501Z,14.06
2018-10-11T04:13:24.485Z,14.03
2018-10-11T04:14:24.473Z,14.04
2018-10-11T04:15:24.476Z,14.00
2018-10-11T04:16:24.454Z,14.02
2018-10-11T04:17:24.438Z,14.06
2018-10-11T04:18:24.435Z,14.07
2018-10-11T04:19:24.424Z,14.06
2018-10-11T04:20:24.408Z,14.06
2018-10-11T04:21:24.399Z,14.04
2018-10-11T04:22:24.389Z,14.06
2018-10-11T04:23:24.379Z,14.03
2018-10-11T04:24:24.370Z,14.04
2018-10-11T04:25:24.357Z,14.09
2018-10-11T04:26:24.342Z,14.02
2018-10-11T04:27:24.334Z,14.00
2018-10-11T04:28:24.314Z,13.99
2018-10-11T04:29:24.310Z,13.99
2018-10-11T04:30:24.300Z,13.89
2018-10-11T04:31:24.292Z,14.00
2018-10-11T04:32:24.275Z,14.02
2018-10-11T04:33:24.266Z,14.09
2018-10-11T04:34:24.255Z,14.06
2018-10-11T04:35:24.247Z,14.06
2018-10-11T04:36:24.233Z,14.12
2018-10-11T04:37:24.223Z,14.22
2018-10-11T04:38:24.213Z,14.24
2018-10-11T04:39:24.203Z,14.29
2018-10-11T04:40:24.189Z,14.27
2018-10-11T04:41:24.182Z,14.39
2018-10-11T04:42:24.170Z,14.25
2018-10-11T04:43:24.157Z,14.39
2018-10-11T04:44:24.144Z,14.37
2018-10-11T04:45:24.134Z,14.29
2018-10-11T04:46:24.120Z,14.21
2018-10-11T04:47:24.112Z,14.12
2018-10-11T04:48:24.105Z,14.09
2018-10-11T04:49:24.090Z,14.04
2018-10-11T04:50:24.085Z,13.92
2018-10-11T04:51:24.069Z,13.85
2018-10-11T04:52:24.059Z,13.85
2018-10-11T04:53:24.094Z,13.87
2018-10-11T04:54:24.035Z,13.81
2018-10-11T04:55:24.027Z,13.71
2018-10-11T04:56:24.013Z,13.67
2018-10-11T04:57:24.010Z,13.69
2018-10-11T04:58:23.990Z,13.66
2018-10-11T04:59:23.981Z,13.64
2018-10-11T05:00:23.966Z,13.69
2018-10-11T05:01:23.956Z,13.52
2018-10-11T05:02:23.946Z,13.52
2018-10-11T05:03:23.935Z,13.54
2018-10-11T05:04:23.926Z,13.59
2018-10-11T05:05:23.981Z,13.62
2018-10-11T05:06:23.909Z,13.52
2018-10-11T05:07:23.892Z,13.51
2018-10-11T05:08:23.883Z,13.46
2018-10-11T05:09:23.875Z,13.55
2018-10-11T05:10:23.862Z,13.51
2018-10-11T05:11:23.862Z,13.54
2018-10-11T05:12:23.838Z,13.59
2018-10-11T05:13:23.826Z,13.51
2018-10-11T05:14:23.817Z,13.46
2018-10-11T05:15:23.895Z,13.52
2018-10-11T05:16:23.789Z,13.54
2018-10-11T05:17:23.839Z,13.41
2018-10-11T05:18:23.771Z,13.49
2018-10-11T05:19:23.760Z,13.46
2018-10-11T05:20:23.746Z,13.45
2018-10-11T05:21:23.775Z,13.48
2018-10-11T05:22:23.725Z,13.48
2018-10-11T05:23:23.711Z,13.51
2018-10-11T05:24:23.699Z,13.57
2018-10-11T05:25:23.706Z,13.55
2018-10-11T05:26:23.956Z,13.59
2018-10-11T05:27:23.674Z,13.59
2018-10-11T05:28:23.664Z,13.49
2018-10-11T05:29:23.645Z,13.55
2018-10-11T05:30:23.637Z,13.52
2018-10-11T05:31:23.626Z,13.54
2018-10-11T05:32:23.669Z,13.55
2018-10-11T05:33:23.603Z,13.51
2018-10-11T05:34:23.595Z,13.48
2018-10-11T05:35:23.584Z,13.55
2018-10-11T05:36:23.566Z,13.51
2018-10-11T05:37:23.563Z,13.55
2018-10-11T05:38:23.546Z,13.52
2018-10-11T05:39:23.536Z,13.57
2018-10-11T05:40:23.530Z,13.69
2018-10-11T05:41:23.517Z,13.49
2018-10-11T05:42:23.504Z,13.57
2018-10-11T05:43:23.490Z,13.62
2018-10-11T05:44:23.508Z,13.63
2018-10-11T05:45:23.472Z,13.66
2018-10-11T05:46:23.460Z,13.64
2018-10-11T05:47:23.446Z,13.64
2018-10-11T05:48:23.439Z,13.64
2018-10-11T05:49:23.425Z,13.57
2018-10-11T05:50:23.505Z,13.55
2018-10-11T05:51:23.401Z,13.52
2018-10-11T05:52:23.391Z,13.51
2018-10-11T05:53:23.380Z,13.46
2018-10-11T05:54:23.376Z,13.48
2018-10-11T05:55:23.366Z,13.45
2018-10-11T05:56:23.350Z,13.46
2018-10-11T05:57:23.336Z,13.52
2018-10-11T05:58:23.328Z,13.42
2018-10-11T05:59:23.314Z,13.49
2018-10-11T06:00:23.309Z,13.44
2018-10-11T06:01:23.290Z,13.49
2018-10-11T06:02:23.282Z,13.45
2018-10-11T06:03:23.273Z,13.48
2018-10-11T06:04:23.316Z,13.51
2018-10-11T06:05:23.251Z,13.54
2018-10-11T06:06:23.234Z,13.51
2018-10-11T06:07:23.220Z,13.60
2018-10-11T06:08:23.217Z,13.63
2018-10-11T06:09:23.195Z,13.63
2018-10-11T06:10:23.191Z,13.67
2018-10-11T06:11:23.179Z,13.63
2018-10-11T06:12:23.172Z,13.60
2018-10-11T06:13:23.159Z,13.63
2018-10-11T06:14:23.153Z,13.67
2018-10-11T06:15:23.137Z,13.79
2018-10-11T06:16:23.125Z,13.78
2018-10-11T06:17:23.109Z,13.87
2018-10-11T06:18:23.101Z,13.95
2018-10-11T06:19:23.090Z,13.88
2018-10-11T06:20:23.082Z,13.92
2018-10-11T06:21:23.070Z,13.91
2018-10-11T06:22:23.062Z,13.97
2018-10-11T06:23:23.046Z,14.03
2018-10-11T06:24:23.036Z,14.02
2018-10-11T06:25:23.021Z,14.03
2018-10-11T06:26:23.014Z,14.00
2018-10-11T06:27:23.004Z,14.12
2018-10-11T06:28:22.998Z,14.09
2018-10-11T06:29:22.983Z,14.07
2018-10-11T06:30:23.041Z,14.07
2018-10-11T06:31:22.960Z,14.10
2018-10-11T06:32:22.948Z,14.21
2018-10-11T06:33:22.938Z,14.22
2018-10-11T06:34:22.927Z,14.24
2018-10-11T06:35:22.915Z,14.25
2018-10-11T06:36:22.967Z,14.24
2018-10-11T06:37:22.895Z,14.27
2018-10-11T06:38:22.891Z,14.29
2018-10-11T06:39:22.869Z,14.33
2018-10-11T06:40:22.862Z,14.39
2018-10-11T06:41:22.853Z,14.24
2018-10-11T06:42:23.015Z,14.35
2018-10-11T06:43:22.829Z,14.22
2018-10-11T06:44:22.816Z,14.28
2018-10-11T06:45:22.810Z,14.24
2018-10-11T06:46:22.794Z,14.37
2018-10-11T06:47:22.781Z,14.39
2018-10-11T06:48:22.785Z,14.42
2018-10-11T06:49:22.766Z,14.43
2018-10-11T06:50:22.834Z,14.42
2018-10-11T06:51:22.741Z,14.54
2018-10-11T06:52:22.729Z,14.54
2018-10-11T06:53:22.717Z,14.62
2018-10-11T06:54:22.708Z,14.57
2018-10-11T06:55:22.696Z,14.58
2018-10-11T06:56:22.688Z,14.65
2018-10-11T06:57:22.678Z,14.69
2018-10-11T06:58:22.669Z,14.72
2018-10-11T06:59:22.651Z,14.78
2018-10-11T07:00:22.643Z,14.78
2018-10-11T07:01:22.629Z,14.81
2018-10-11T07:02:22.634Z,14.86
2018-10-11T07:03:22.613Z,14.91
2018-10-11T07:04:22.614Z,14.91
2018-10-11T07:05:22.593Z,15.07
2018-10-11T07:06:22.624Z,15.03
2018-10-11T07:07:22.592Z,15.11
2018-10-11T07:08:22.554Z,15.20
2018-10-11T07:09:22.556Z,15.29
2018-10-11T07:10:22.535Z,15.38
2018-10-11T07:11:22.529Z,15.47
2018-10-11T07:12:22.509Z,15.64
2018-10-11T07:13:22.500Z,15.54
2018-10-11T07:14:22.493Z,15.68
2018-10-11T07:15:22.481Z,15.64
2018-10-11T07:16:22.475Z,15.64
2018-10-11T07:17:22.461Z,15.62
2018-10-11T07:18:22.450Z,15.64
2018-10-11T07:19:22.508Z,15.72
2018-10-11T07:20:22.435Z,15.75
2018-10-11T07:21:22.419Z,15.75
2018-10-11T07:22:22.408Z,15.90
2018-10-11T07:23:22.398Z,16.04
2018-10-11T07:24:22.380Z,16.02
2018-10-11T07:25:22.376Z,15.97
2018-10-11T07:26:22.377Z,16.11
2018-10-11T07:27:22.365Z,16.09
2018-10-11T07:28:22.349Z,16.27
2018-10-11T07:29:22.336Z,16.34
2018-10-11T07:30:22.322Z,16.46
2018-10-11T07:31:22.314Z,16.48
2018-10-11T07:32:22.312Z,16.58
2018-10-11T07:33:22.298Z,16.70
2018-10-11T07:34:22.284Z,16.83
2018-10-11T07:35:22.474Z,17.00
2018-10-11T07:36:22.268Z,17.16
2018-10-11T07:37:22.272Z,17.31
2018-10-11T07:38:22.253Z,17.43
2018-10-11T07:39:22.234Z,17.56
2018-10-11T07:40:22.285Z,17.79
2018-10-11T07:41:22.215Z,17.87
2018-10-11T07:42:22.207Z,18.03
2018-10-11T07:43:22.204Z,17.92
2018-10-11T07:44:22.192Z,18.05
2018-10-11T07:45:22.178Z,18.17
2018-10-11T07:46:22.168Z,18.29
2018-10-11T07:47:22.158Z,18.26
2018-10-11T07:48:22.153Z,18.30
2018-10-11T07:49:22.797Z,18.15
2018-10-11T07:50:22.127Z,18.12
2018-10-11T07:51:22.145Z,17.93
2018-10-11T07:52:23.059Z,17.74
2018-10-11T07:53:22.103Z,17.70
2018-10-11T07:54:22.092Z,17.72
2018-10-11T07:55:22.084Z,17.68
2018-10-11T07:56:22.073Z,17.70
2018-10-11T07:57:22.058Z,17.70
2018-10-11T07:58:22.053Z,17.75
2018-10-11T07:59:22.065Z,17.78
2018-10-11T08:00:22.035Z,17.92
2018-10-11T08:01:22.051Z,17.89
2018-10-11T08:02:22.011Z,17.96
2018-10-11T08:03:22.044Z,17.97
2018-10-11T08:04:21.993Z,17.92
2018-10-11T08:05:21.982Z,18.08
2018-10-11T08:06:21.975Z,18.11
2018-10-11T08:07:22.040Z,18.12
2018-10-11T08:08:22.040Z,18.08
2018-10-11T08:09:21.949Z,17.89
2018-10-11T08:10:21.977Z,17.90
2018-10-11T08:11:22.012Z,17.90
2018-10-11T08:12:21.928Z,17.77
2018-10-11T08:13:21.934Z,17.59
2018-10-11T08:14:21.904Z,17.36
2018-10-11T08:15:21.892Z,17.43
2018-10-11T08:16:21.930Z,17.41
2018-10-11T08:17:22.210Z,17.44
2018-10-11T08:18:21.868Z,17.44
2018-10-11T08:19:22.035Z,17.37
2018-10-11T08:20:21.865Z,17.40
2018-10-11T08:21:21.841Z,17.40
2018-10-11T08:22:21.823Z,17.40
2018-10-11T08:23:21.816Z,17.51
2018-10-11T08:24:21.819Z,17.55
2018-10-11T08:25:22.077Z,17.64
2018-10-11T08:26:22.167Z,17.71
2018-10-11T08:27:21.813Z,17.77
2018-10-11T08:28:21.763Z,17.84
2018-10-11T08:29:21.757Z,17.86
2018-10-11T08:30:21.750Z,17.99
2018-10-11T08:31:21.744Z,17.92
2018-10-11T08:32:21.851Z,17.96
2018-10-11T08:33:21.731Z,18.08
2018-10-11T08:34:21.713Z,17.95
2018-10-11T08:35:21.708Z,17.84
2018-10-11T08:36:21.693Z,17.84
2018-10-11T08:37:21.690Z,17.59
2018-10-11T08:38:21.682Z,17.33
2018-10-11T08:39:21.661Z,17.25
2018-10-11T08:40:21.649Z,17.19
2018-10-11T08:41:21.640Z,17.16
2018-10-11T08:42:21.640Z,17.15
2018-10-11T08:43:21.641Z,17.00
2018-10-11T08:44:21.617Z,16.98
2018-10-11T08:45:21.608Z,17.04
2018-10-11T08:46:21.596Z,17.11
2018-10-11T08:47:21.579Z,17.22
2018-10-11T08:48:21.576Z,17.21
2018-10-11T08:49:21.571Z,17.30
2018-10-11T08:50:21.691Z,17.41
2018-10-11T08:51:21.557Z,17.49
2018-10-11T08:52:21.539Z,17.51
2018-10-11T08:53:21.526Z,17.56
2018-10-11T08:54:21.519Z,17.72
2018-10-11T08:55:21.513Z,17.74
2018-10-11T08:56:21.498Z,17.70
2018-10-11T08:57:21.485Z,17.52
2018-10-11T08:58:21.480Z,17.43
2018-10-11T08:59:21.482Z,17.30
2018-10-11T09:00:21.462Z,17.12
2018-10-11T09:01:21.457Z,17.11
2018-10-11T09:02:21.439Z,17.16
2018-10-11T09:03:21.543Z,17.23
2018-10-11T09:04:21.421Z,17.34
2018-10-11T09:05:21.413Z,17.30
2018-10-11T09:06:21.398Z,17.43
2018-10-11T09:07:21.396Z,17.55
2018-10-11T09:08:21.382Z,17.56
2018-10-11T09:09:21.406Z,17.75
2018-10-11T09:10:21.366Z,17.79
2018-10-11T09:11:21.421Z,17.84
2018-10-11T09:12:21.346Z,17.96
2018-10-11T09:13:21.335Z,17.96
2018-10-11T09:14:21.330Z,17.96
2018-10-11T09:15:21.587Z,17.78
2018-10-11T09:16:21.317Z,17.68
2018-10-11T09:17:21.333Z,17.77
2018-10-11T09:18:21.283Z,17.79
2018-10-11T09:19:21.281Z,17.82
2018-10-11T09:20:21.266Z,17.87
2018-10-11T09:21:21.255Z,17.95
2018-10-11T09:22:21.265Z,17.96
2018-10-11T09:23:21.253Z,18.07
2018-10-11T09:24:21.242Z,17.99
2018-10-11T09:25:21.216Z,18.07
2018-10-11T09:26:21.210Z,18.05
2018-10-11T09:27:21.203Z,18.02
2018-10-11T09:28:21.188Z,18.05
2018-10-11T09:29:21.188Z,18.07
2018-10-11T09:30:21.220Z,18.05
2018-10-11T09:31:21.157Z,18.07
2018-10-11T09:32:21.153Z,18.05
2018-10-11T09:33:21.144Z,18.10
2018-10-11T09:34:21.140Z,18.08
2018-10-11T09:35:21.122Z,18.15
2018-10-11T09:36:21.138Z,18.12
2018-10-11T09:37:21.216Z,18.15
2018-10-11T09:38:21.097Z,18.03
2018-10-11T09:39:21.095Z,18.12
2018-10-11T09:40:21.086Z,18.05
2018-10-11T09:41:21.063Z,18.08
2018-10-11T09:42:21.059Z,18.10
2018-10-11T09:43:21.043Z,18.12
2018-10-11T09:44:21.036Z,18.05
2018-10-11T09:45:21.035Z,18.08
2018-10-11T09:46:21.017Z,18.05
2018-10-11T09:47:21.009Z,18.03
2018-10-11T09:48:21.002Z,18.12
2018-10-11T09:49:20.998Z,18.10
2018-10-11T09:50:20.982Z,18.11
2018-10-11T09:51:20.970Z,18.18
2018-10-11T09:52:20.969Z,18.17
2018-10-11T09:53:20.959Z,18.25
2018-10-11T09:54:20.973Z,18.23
2018-10-11T09:55:20.933Z,18.20
2018-10-11T09:56:20.925Z,18.17
2018-10-11T09:57:20.917Z,18.27
2018-10-11T09:58:20.920Z,18.21
2018-10-11T09:59:20.898Z,18.30
2018-10-11T10:00:20.889Z,18.23
2018-10-11T10:01:20.877Z,18.35
2018-10-11T10:02:20.869Z,18.35
2018-10-11T10:03:20.864Z,18.32
2018-10-11T10:04:20.853Z,18.41
2018-10-11T10:05:20.850Z,18.41
2018-10-11T10:06:20.830Z,18.41
2018-10-11T10:07:20.824Z,18.42
2018-10-11T10:08:20.812Z,18.44
2018-10-11T10:09:20.808Z,18.54
2018-10-11T10:10:20.794Z,18.54
2018-10-11T10:11:20.785Z,18.54
2018-10-11T10:12:20.778Z,18.51
2018-10-11T10:13:20.765Z,18.58
2018-10-11T10:14:20.761Z,18.57
2018-10-11T10:15:20.759Z,18.58
2018-10-11T10:16:20.742Z,18.58
2018-10-11T10:17:20.733Z,18.60
2018-10-11T10:18:20.720Z,18.60
2018-10-11T10:19:20.716Z,18.75
2018-10-11T10:20:20.702Z,18.72
2018-10-11T10:21:20.804Z,18.62
2018-10-11T10:22:20.686Z,18.60
2018-10-11T10:23:20.673Z,18.67
2018-10-11T10:24:20.666Z,18.54
2018-10-11T10:25:20.656Z,18.57
2018-10-11T10:26:20.652Z,18.60
2018-10-11T10:27:20.762Z,18.54
2018-10-11T10:28:20.631Z,18.57
2018-10-11T10:29:20.618Z,18.60
2018-10-11T10:30:20.613Z,18.54
2018-10-11T10:31:20.603Z,18.55
2018-10-11T10:32:20.595Z,18.60
2018-10-11T10:33:20.586Z,18.60
2018-10-11T10:34:20.581Z,18.62
2018-10-11T10:35:20.568Z,18.57
2018-10-11T10:36:20.559Z,18.72
2018-10-11T10:37:20.548Z,18.67
2018-10-11T10:38:20.540Z,18.69
2018-10-11T10:39:20.525Z,18.76
2018-10-11T10:40:20.521Z,18.76
2018-10-11T10:41:20.510Z,18.81
2018-10-11T10:42:20.502Z,18.85
2018-10-11T10:43:20.497Z,18.90
2018-10-11T10:44:20.482Z,18.91
2018-10-11T10:45:20.473Z,18.87
2018-10-11T10:46:20.462Z,18.92
2018-10-11T10:47:20.456Z,18.92
2018-10-11T10:48:20.448Z,18.82
2018-10-11T10:49:20.436Z,18.87
2018-10-11T10:50:20.432Z,18.87
2018-10-11T10:51:20.425Z,18.92
2018-10-11T10:52:20.411Z,18.94
2018-10-11T10:53:20.411Z,18.87
2018-10-11T10:54:20.475Z,18.95
2018-10-11T10:55:20.381Z,18.92
2018-10-11T10:56:20.372Z,18.91
2018-10-11T10:57:20.366Z,18.94
2018-10-11T10:58:20.356Z,18.90
2018-10-11T10:59:20.351Z,18.91
2018-10-11T11:00:20.342Z,18.91
2018-10-11T11:01:20.331Z,18.88
2018-10-11T11:02:20.317Z,18.90
2018-10-11T11:03:20.308Z,18.87
2018-10-11T11:04:20.310Z,18.92
2018-10-11T11:05:20.299Z,18.88
2018-10-11T11:06:20.285Z,18.87
2018-10-11T11:07:20.341Z,18.94
2018-10-11T11:08:20.271Z,18.92
2018-10-11T11:09:20.256Z,18.88
2018-10-11T11:10:20.255Z,18.95
2018-10-11T11:11:20.240Z,18.88
2018-10-11T11:12:20.229Z,19.02
2018-10-11T11:13:20.329Z,19.02
2018-10-11T11:14:20.212Z,19.08
2018-10-11T11:15:20.206Z,19.11
2018-10-11T11:16:20.193Z,19.18
2018-10-11T11:17:20.191Z,19.18
2018-10-11T11:18:20.184Z,19.23
2018-10-11T11:19:20.171Z,19.18
2018-10-11T11:20:20.165Z,19.25
2018-10-11T11:21:20.156Z,19.29
2018-10-11T11:22:20.137Z,19.22
2018-10-11T11:23:20.134Z,19.31
2018-10-11T11:24:20.129Z,19.22
2018-10-11T11:25:20.146Z,19.26
2018-10-11T11:26:20.111Z,19.26
2018-10-11T11:27:20.096Z,19.28
2018-10-11T11:28:20.091Z,19.28
2018-10-11T11:29:20.075Z,19.28
2018-10-11T11:30:20.072Z,19.37
2018-10-11T11:31:20.068Z,19.33
2018-10-11T11:32:20.054Z,19.39
2018-10-11T11:33:20.048Z,19.39
2018-10-11T11:34:20.036Z,19.37
2018-10-11T11:35:20.028Z,19.36
2018-10-11T11:36:20.022Z,19.36
2018-10-11T11:37:20.016Z,19.37
2018-10-11T11:38:19.998Z,19.46
2018-10-11T11:39:19.993Z,19.39
2018-10-11T11:40:19.992Z,19.43
2018-10-11T11:41:19.969Z,19.36
2018-10-11T11:42:19.988Z,19.33
2018-10-11T11:43:19.956Z,19.28
2018-10-11T11:44:19.959Z,19.31
2018-10-11T11:45:19.947Z,19.36
2018-10-11T11:46:19.931Z,19.23
2018-10-11T11:47:19.923Z,19.21
2018-10-11T11:48:19.913Z,19.25
2018-10-11T11:49:19.911Z,19.29
2018-10-11T11:50:19.906Z,19.25
2018-10-11T11:51:19.899Z,19.29
2018-10-11T11:52:19.877Z,19.28
2018-10-11T11:53:19.877Z,19.31
2018-10-11T11:54:19.862Z,19.19
2018-10-11T11:55:19.861Z,19.26
2018-10-11T11:56:19.848Z,19.28
2018-10-11T11:57:19.836Z,19.18
2018-10-11T11:58:19.831Z,19.13
2018-10-11T11:59:19.816Z,19.25
2018-10-11T12:00:19.806Z,19.22
2018-10-11T12:01:19.800Z,19.22
2018-10-11T12:02:19.798Z,19.16
2018-10-11T12:03:19.791Z,19.18
2018-10-11T12:04:19.779Z,19.11
2018-10-11T12:05:19.766Z,19.23
2018-10-11T12:06:19.761Z,19.19
2018-10-11T12:07:19.748Z,19.19
2018-10-11T12:08:19.742Z,19.13
2018-10-11T12:09:19.732Z,19.16
2018-10-11T12:10:19.767Z,19.25
2018-10-11T12:11:19.714Z,19.18
2018-10-11T12:12:19.703Z,19.19
2018-10-11T12:13:19.694Z,19.23
2018-10-11T12:14:19.688Z,19.18
2018-10-11T12:15:19.708Z,19.10
2018-10-11T12:16:19.668Z,19.19
2018-10-11T12:17:19.666Z,19.18
2018-10-11T12:18:19.649Z,19.19
2018-10-11T12:19:19.643Z,19.18
2018-10-11T12:20:19.631Z,19.18
2018-10-11T12:21:19.629Z,19.22
2018-10-11T12:22:19.617Z,19.21
2018-10-11T12:23:19.610Z,19.25
2018-10-11T12:24:19.595Z,19.36
2018-10-11T12:25:19.591Z,19.39
2018-10-11T12:26:19.588Z,19.26
2018-10-11T12:27:19.578Z,19.37
2018-10-11T12:28:19.585Z,19.36
2018-10-11T12:29:19.557Z,19.46
2018-10-11T12:30:19.553Z,19.51
2018-10-11T12:31:19.539Z,19.48
2018-10-11T12:32:19.526Z,19.50
2018-10-11T12:33:19.520Z,19.44
2018-10-11T12:34:19.517Z,19.48
2018-10-11T12:35:19.504Z,19.56
2018-10-11T12:36:19.508Z,19.62
2018-10-11T12:37:19.487Z,19.62
2018-10-11T12:38:19.477Z,19.61
2018-10-11T12:39:19.475Z,19.61
2018-10-11T12:40:19.459Z,19.59
2018-10-11T12:41:19.451Z,19.62
2018-10-11T12:42:19.461Z,19.71
2018-10-11T12:43:19.432Z,19.66
2018-10-11T12:44:19.432Z,19.76
2018-10-11T12:45:19.464Z,19.74
2018-10-11T12:46:19.412Z,19.65
2018-10-11T12:47:19.401Z,19.68
2018-10-11T12:48:19.390Z,19.71
2018-10-11T12:49:19.422Z,19.78
2018-10-11T12:50:19.378Z,19.78
2018-10-11T12:51:19.367Z,19.77
2018-10-11T12:52:19.357Z,19.68